createdAt,value
2018-04-08T00:00:11.476Z,18.05
2018-04-08T00:00:37.617Z,18.04
2018-04-08T00:01:03.762Z,18.03
2018-04-08T00:01:29.894Z,17.97
2018-04-08T00:01:56.037Z,17.98
2018-04-08T00:02:22.168Z,17.92
2018-04-08T00:02:48.334Z,18
2018-04-08T00:03:14.466Z,18.01
2018-04-08T00:03:40.605Z,17.98
2018-04-08T00:04:06.746Z,17.98
2018-04-08T00:04:32.884Z,17.97
2018-04-08T00:04:59.023Z,17.94
2018-04-08T00:05:25.161Z,17.98
2018-04-08T00:05:51.305Z,18.04
2018-04-08T00:06:17.446Z,17.92
2018-04-08T00:06:43.585Z,18
2018-04-08T00:07:09.724Z,17.98
2018-04-08T00:07:35.861Z,18
2018-04-08T00:08:02.020Z,18.03
2018-04-08T00:08:28.187Z,17.94
2018-04-08T00:08:54.325Z,17.92
2018-04-08T00:09:20.463Z,17.86
2018-04-08T00:09:46.621Z,17.85
2018-04-08T00:10:12.765Z,17.83
2018-04-08T00:10:38.901Z,17.95
2018-04-08T00:11:05.044Z,17.92
2018-04-08T00:11:31.202Z,17.86
2018-04-08T00:11:57.347Z,17.74
2018-04-08T00:12:23.488Z,17.86
2018-04-08T00:12:49.627Z,17.85
2018-04-08T00:13:15.761Z,17.85
2018-04-08T00:13:41.911Z,17.87
2018-04-08T00:14:08.056Z,17.87
2018-04-08T00:14:34.188Z,17.86
2018-04-08T00:15:00.377Z,17.87
2018-04-08T00:15:26.517Z,17.83
2018-04-08T00:15:52.653Z,17.82
2018-04-08T00:16:18.794Z,17.86
2018-04-08T00:16:44.941Z,17.79
2018-04-08T00:17:11.096Z,17.85
2018-04-08T00:17:37.231Z,17.79
2018-04-08T00:18:03.377Z,17.83
2018-04-08T00:18:29.512Z,17.86
2018-04-08T00:18:55.652Z,17.86
2018-04-08T00:19:21.789Z,17.8
2018-04-08T00:19:47.929Z,17.86
2018-04-08T00:20:14.070Z,17.82
2018-04-08T00:20:40.215Z,17.74
2018-04-08T00:21:06.378Z,17.78
2018-04-08T00:21:32.523Z,17.83
2018-04-08T00:21:58.670Z,17.74
2018-04-08T00:22:24.807Z,17.74
2018-04-08T00:22:50.949Z,17.85
2018-04-08T00:23:17.109Z,17.8
2018-04-08T00:23:43.244Z,17.78
2018-04-08T00:24:09.381Z,17.78
2018-04-08T00:24:35.548Z,17.86
2018-04-08T00:25:01.690Z,17.89
2018-04-08T00:25:27.857Z,17.85
2018-04-08T00:25:53.994Z,17.74
2018-04-08T00:26:20.133Z,17.8
2018-04-08T00:26:46.278Z,17.82
2018-04-08T00:27:12.421Z,17.79
2018-04-08T00:27:38.561Z,17.76
2018-04-08T00:28:04.692Z,17.8
2018-04-08T00:28:30.843Z,17.8
2018-04-08T00:28:56.978Z,17.82
2018-04-08T00:29:23.119Z,17.76
2018-04-08T00:29:49.282Z,17.76
2018-04-08T00:30:15.428Z,17.79
2018-04-08T00:30:41.586Z,17.71
2018-04-08T00:31:07.730Z,17.8
2018-04-08T00:31:33.892Z,17.79
2018-04-08T00:32:00.032Z,17.76
2018-04-08T00:32:26.170Z,17.79
2018-04-08T00:32:52.309Z,17.85
2018-04-08T00:33:18.452Z,17.76
2018-04-08T00:33:44.594Z,17.74
2018-04-08T00:34:10.728Z,17.82
2018-04-08T00:34:36.872Z,17.74
2018-04-08T00:35:03.006Z,17.83
2018-04-08T00:35:29.148Z,17.8
2018-04-08T00:35:55.314Z,17.83
2018-04-08T00:36:21.449Z,17.78
2018-04-08T00:36:47.585Z,17.8
2018-04-08T00:37:13.726Z,17.78
2018-04-08T00:37:39.868Z,17.83
2018-04-08T00:38:06.005Z,17.8
2018-04-08T00:38:32.140Z,17.85
2018-04-08T00:38:58.276Z,17.79
2018-04-08T00:39:24.416Z,17.79
2018-04-08T00:39:50.552Z,17.82
2018-04-08T00:40:16.693Z,17.8
2018-04-08T00:40:42.832Z,17.83
2018-04-08T00:41:08.975Z,17.82
2018-04-08T00:41:35.112Z,17.82
2018-04-08T00:42:01.246Z,17.74
2018-04-08T00:42:27.394Z,17.79
2018-04-08T00:42:53.523Z,17.68
2018-04-08T00:43:19.670Z,17.76
2018-04-08T00:43:45.838Z,17.64
2018-04-08T00:44:11.972Z,17.65
2018-04-08T00:44:38.118Z,17.6
2018-04-08T00:45:04.253Z,17.57
2018-04-08T00:45:30.400Z,17.64
2018-04-08T00:45:56.538Z,17.57
2018-04-08T00:46:22.679Z,17.63
2018-04-08T00:46:48.819Z,17.7
2018-04-08T00:47:14.962Z,17.78
2018-04-08T00:47:41.130Z,17.7
2018-04-08T00:48:07.273Z,17.78
2018-04-08T00:48:33.408Z,17.71
2018-04-08T00:48:59.555Z,17.64
2018-04-08T00:49:25.696Z,17.64
2018-04-08T00:49:51.836Z,17.7
2018-04-08T00:50:17.969Z,17.68
2018-04-08T00:50:44.106Z,17.7
2018-04-08T00:51:10.249Z,17.63
2018-04-08T00:51:36.390Z,17.74
2018-04-08T00:52:02.528Z,17.65
2018-04-08T00:52:28.670Z,17.6
2018-04-08T00:52:54.809Z,17.65
2018-04-08T00:53:20.949Z,17.57
2018-04-08T00:53:47.086Z,17.63
2018-04-08T00:54:13.222Z,17.6
2018-04-08T00:54:39.361Z,17.65
2018-04-08T00:55:05.498Z,17.64
2018-04-08T00:55:31.645Z,17.68
2018-04-08T00:55:57.780Z,17.57
2018-04-08T00:56:23.921Z,17.64
2018-04-08T00:56:50.058Z,17.63
2018-04-08T00:57:16.198Z,17.57
2018-04-08T00:57:42.340Z,17.56
2018-04-08T00:58:08.498Z,17.57
2018-04-08T00:58:34.639Z,17.63
2018-04-08T00:59:00.777Z,17.59
2018-04-08T00:59:26.920Z,17.52
2018-04-08T00:59:53.081Z,17.49
2018-04-08T01:00:19.240Z,17.51
2018-04-08T01:00:45.376Z,17.49
2018-04-08T01:01:11.511Z,17.54
2018-04-08T01:01:37.656Z,17.52
2018-04-08T01:02:03.798Z,17.48
2018-04-08T01:02:29.935Z,17.48
2018-04-08T01:02:56.071Z,17.51
2018-04-08T01:03:22.214Z,17.46
2018-04-08T01:03:48.352Z,17.51
2018-04-08T01:04:14.517Z,17.46
2018-04-08T01:04:40.651Z,17.48
2018-04-08T01:05:06.797Z,17.49
2018-04-08T01:05:32.955Z,17.52
2018-04-08T01:05:59.098Z,17.46
2018-04-08T01:06:25.248Z,17.51
2018-04-08T01:06:51.377Z,17.44
2018-04-08T01:07:17.523Z,17.46
2018-04-08T01:07:43.661Z,17.44
2018-04-08T01:08:09.800Z,17.48
2018-04-08T01:08:35.939Z,17.48
2018-04-08T01:09:02.085Z,17.45
2018-04-08T01:09:28.213Z,17.48
2018-04-08T01:09:54.353Z,17.46
2018-04-08T01:10:20.498Z,17.42
2018-04-08T01:10:46.636Z,17.41
2018-04-08T01:11:12.779Z,17.48
2018-04-08T01:11:38.926Z,17.45
2018-04-08T01:12:05.059Z,17.46
2018-04-08T01:12:31.231Z,17.49
2018-04-08T01:12:57.370Z,17.45
2018-04-08T01:13:23.503Z,17.46
2018-04-08T01:13:49.676Z,17.48
2018-04-08T01:14:15.812Z,17.41
2018-04-08T01:14:41.982Z,17.42
2018-04-08T01:15:08.119Z,17.45
2018-04-08T01:15:34.260Z,17.44
2018-04-08T01:16:00.399Z,17.42
2018-04-08T01:16:26.553Z,17.46
2018-04-08T01:16:52.681Z,17.36
2018-04-08T01:17:18.823Z,17.44
2018-04-08T01:17:44.981Z,17.45
2018-04-08T01:18:11.118Z,17.46
2018-04-08T01:18:37.256Z,17.42
2018-04-08T01:19:03.427Z,17.39
2018-04-08T01:19:29.561Z,17.36
2018-04-08T01:19:55.714Z,17.34
2018-04-08T01:20:21.859Z,17.24
2018-04-08T01:20:47.996Z,17.34
2018-04-08T01:21:14.138Z,17.36
2018-04-08T01:21:40.274Z,17.29
2018-04-08T01:22:06.430Z,17.34
2018-04-08T01:22:32.577Z,17.38
2018-04-08T01:22:58.711Z,17.38
2018-04-08T01:23:24.852Z,17.38
2018-04-08T01:23:50.982Z,17.36
2018-04-08T01:24:17.125Z,17.33
2018-04-08T01:24:43.261Z,17.29
2018-04-08T01:25:09.403Z,17.24
2018-04-08T01:25:35.538Z,17.24
2018-04-08T01:26:01.684Z,17.24
2018-04-08T01:26:27.817Z,17.23
2018-04-08T01:26:53.961Z,17.29
2018-04-08T01:27:20.095Z,17.24
2018-04-08T01:27:46.239Z,17.19
2018-04-08T01:28:12.376Z,17.14
2018-04-08T01:28:38.516Z,17.2
2018-04-08T01:29:04.657Z,17.27
2018-04-08T01:29:30.800Z,17.22
2018-04-08T01:29:56.956Z,17.22
2018-04-08T01:30:23.098Z,17.16
2018-04-08T01:30:49.237Z,17.22
2018-04-08T01:31:15.381Z,17.15
2018-04-08T01:31:41.522Z,17.19
2018-04-08T01:32:07.665Z,17.12
2018-04-08T01:32:33.801Z,17.23
2018-04-08T01:32:59.966Z,17.14
2018-04-08T01:33:26.110Z,17.14
2018-04-08T01:33:52.251Z,17.26
2018-04-08T01:34:18.384Z,17.22
2018-04-08T01:34:44.559Z,17.2
2018-04-08T01:35:10.694Z,17.2
2018-04-08T01:35:36.837Z,17.14
2018-04-08T01:36:02.975Z,17.2
2018-04-08T01:36:29.108Z,17.15
2018-04-08T01:36:55.268Z,17.14
2018-04-08T01:37:21.416Z,17.11
2018-04-08T01:37:47.560Z,17.16
2018-04-08T01:38:13.700Z,17.2
2018-04-08T01:38:39.840Z,17.2
2018-04-08T01:39:05.976Z,17.16
2018-04-08T01:39:32.125Z,17.19
2018-04-08T01:39:58.253Z,17.16
2018-04-08T01:40:24.392Z,17.09
2018-04-08T01:40:50.533Z,17.12
2018-04-08T01:41:16.666Z,17.19
2018-04-08T01:41:42.830Z,17.22
2018-04-08T01:42:08.969Z,17.15
2018-04-08T01:42:35.107Z,17.24
2018-04-08T01:43:01.248Z,17.15
2018-04-08T01:43:27.383Z,17.12
2018-04-08T01:43:53.525Z,17.12
2018-04-08T01:44:19.661Z,17.09
2018-04-08T01:44:45.795Z,17.04
2018-04-08T01:45:11.932Z,17.04
2018-04-08T01:45:38.075Z,16.97
2018-04-08T01:46:04.235Z,17.01
2018-04-08T01:46:30.371Z,16.91
2018-04-08T01:46:56.513Z,16.93
2018-04-08T01:47:22.650Z,16.84
2018-04-08T01:47:48.791Z,16.84
2018-04-08T01:48:14.925Z,16.84
2018-04-08T01:48:41.068Z,16.86
2018-04-08T01:49:07.263Z,16.81
2018-04-08T01:49:33.399Z,16.72
2018-04-08T01:49:59.539Z,16.79
2018-04-08T01:50:25.678Z,16.86
2018-04-08T01:50:51.817Z,16.78
2018-04-08T01:51:17.985Z,16.75
2018-04-08T01:51:44.127Z,16.81
2018-04-08T01:52:10.260Z,16.74
2018-04-08T01:52:36.394Z,16.76
2018-04-08T01:53:02.529Z,16.76
2018-04-08T01:53:28.667Z,16.75
2018-04-08T01:53:54.810Z,16.79
2018-04-08T01:54:20.952Z,16.76
2018-04-08T01:54:47.096Z,16.71
2018-04-08T01:55:13.230Z,16.69
2018-04-08T01:55:39.364Z,16.75
2018-04-08T01:56:05.505Z,16.72
2018-04-08T01:56:31.645Z,16.64
2018-04-08T01:56:57.787Z,16.71
2018-04-08T01:57:23.927Z,16.66
2018-04-08T01:57:50.060Z,16.68
2018-04-08T01:58:16.200Z,16.69
2018-04-08T01:58:42.350Z,16.68
2018-04-08T01:59:08.513Z,16.71
2018-04-08T01:59:34.648Z,16.68
2018-04-08T02:00:00.796Z,16.75
2018-04-08T02:00:26.929Z,16.69
2018-04-08T02:00:53.072Z,16.65
2018-04-08T02:01:19.213Z,16.65
2018-04-08T02:01:45.352Z,16.69
2018-04-08T02:02:11.490Z,16.68
2018-04-08T02:02:37.666Z,16.68
2018-04-08T02:03:03.768Z,16.68
2018-04-08T02:03:29.932Z,16.58
2018-04-08T02:03:56.066Z,16.75
2018-04-08T02:04:22.240Z,16.71
2018-04-08T02:04:48.379Z,16.65
2018-04-08T02:05:14.546Z,16.68
2018-04-08T02:05:40.689Z,16.61
2018-04-08T02:06:06.852Z,16.58
2018-04-08T02:06:33.018Z,16.57
2018-04-08T02:06:59.154Z,16.56
2018-04-08T02:07:25.316Z,16.68
2018-04-08T02:07:51.455Z,16.69
2018-04-08T02:08:17.589Z,16.66
2018-04-08T02:08:43.731Z,16.75
2018-04-08T02:09:09.867Z,16.68
2018-04-08T02:09:36.010Z,16.65
2018-04-08T02:10:02.143Z,16.61
2018-04-08T02:10:28.294Z,16.64
2018-04-08T02:10:54.432Z,16.57
2018-04-08T02:11:20.565Z,16.57
2018-04-08T02:11:46.699Z,16.5
2018-04-08T02:12:12.843Z,16.53
2018-04-08T02:12:38.976Z,16.43
2018-04-08T02:13:05.119Z,16.56
2018-04-08T02:13:31.256Z,16.57
2018-04-08T02:13:57.397Z,16.56
2018-04-08T02:14:23.540Z,16.57
2018-04-08T02:14:49.683Z,16.56
2018-04-08T02:15:15.818Z,16.56
2018-04-08T02:15:41.956Z,16.53
2018-04-08T02:16:08.092Z,16.58
2018-04-08T02:16:34.236Z,16.56
2018-04-08T02:17:00.369Z,16.57
2018-04-08T02:17:26.508Z,16.61
2018-04-08T02:17:52.647Z,16.54
2018-04-08T02:18:18.801Z,16.47
2018-04-08T02:18:44.952Z,16.54
2018-04-08T02:19:11.096Z,16.5
2018-04-08T02:19:37.231Z,16.5
2018-04-08T02:20:03.376Z,16.43
2018-04-08T02:20:29.508Z,16.41
2018-04-08T02:20:55.676Z,16.54
2018-04-08T02:21:21.820Z,16.53
2018-04-08T02:21:47.950Z,16.5
2018-04-08T02:22:14.093Z,16.46
2018-04-08T02:22:40.234Z,16.42
2018-04-08T02:23:06.398Z,16.46
2018-04-08T02:23:32.539Z,16.49
2018-04-08T02:23:58.673Z,16.53
2018-04-08T02:24:24.819Z,16.47
2018-04-08T02:24:50.958Z,16.46
2018-04-08T02:25:17.093Z,16.53
2018-04-08T02:25:43.232Z,16.51
2018-04-08T02:26:09.372Z,16.51
2018-04-08T02:26:35.505Z,16.53
2018-04-08T02:27:01.654Z,16.47
2018-04-08T02:27:27.812Z,16.47
2018-04-08T02:27:53.956Z,16.43
2018-04-08T02:28:20.116Z,16.47
2018-04-08T02:28:46.258Z,16.46
2018-04-08T02:29:12.397Z,16.42
2018-04-08T02:29:38.538Z,16.51
2018-04-08T02:30:04.676Z,16.43
2018-04-08T02:30:30.812Z,16.42
2018-04-08T02:30:56.955Z,16.47
2018-04-08T02:31:23.090Z,16.47
2018-04-08T02:31:49.230Z,16.43
2018-04-08T02:32:15.390Z,16.5
2018-04-08T02:32:41.527Z,16.47
2018-04-08T02:33:07.671Z,16.36
2018-04-08T02:33:33.807Z,16.5
2018-04-08T02:33:59.955Z,16.46
2018-04-08T02:34:26.082Z,16.43
2018-04-08T02:34:52.271Z,16.46
2018-04-08T02:35:18.441Z,16.47
2018-04-08T02:35:44.569Z,16.43
2018-04-08T02:36:10.708Z,16.43
2018-04-08T02:36:36.895Z,16.5
2018-04-08T02:37:03.077Z,16.39
2018-04-08T02:37:29.221Z,16.42
2018-04-08T02:37:55.358Z,16.39
2018-04-08T02:38:21.495Z,16.39
2018-04-08T02:38:47.637Z,16.46
2018-04-08T02:39:13.778Z,16.43
2018-04-08T02:39:39.934Z,16.49
2018-04-08T02:40:06.078Z,16.42
2018-04-08T02:40:32.210Z,16.51
2018-04-08T02:40:58.354Z,16.49
2018-04-08T02:41:24.500Z,16.5
2018-04-08T02:41:50.634Z,16.47
2018-04-08T02:42:16.779Z,16.43
2018-04-08T02:42:42.915Z,16.32
2018-04-08T02:43:09.080Z,16.39
2018-04-08T02:43:35.224Z,16.41
2018-04-08T02:44:01.388Z,16.43
2018-04-08T02:44:27.528Z,16.46
2018-04-08T02:44:53.671Z,16.39
2018-04-08T02:45:19.832Z,16.41
2018-04-08T02:45:45.973Z,16.46
2018-04-08T02:46:12.116Z,16.49
2018-04-08T02:46:38.273Z,16.43
2018-04-08T02:47:04.445Z,16.39
2018-04-08T02:47:30.578Z,16.43
2018-04-08T02:47:56.724Z,16.46
2018-04-08T02:48:22.852Z,16.46
2018-04-08T02:48:48.993Z,16.43
2018-04-08T02:49:15.160Z,16.42
2018-04-08T02:49:41.296Z,16.46
2018-04-08T02:50:07.455Z,16.47
2018-04-08T02:50:33.595Z,16.46
2018-04-08T02:50:59.737Z,16.42
2018-04-08T02:51:25.898Z,16.43
2018-04-08T02:51:52.058Z,16.5
2018-04-08T02:52:18.214Z,16.47
2018-04-08T02:52:44.358Z,16.57
2018-04-08T02:53:10.495Z,16.49
2018-04-08T02:53:36.627Z,16.49
2018-04-08T02:54:02.795Z,16.46
2018-04-08T02:54:28.933Z,16.47
2018-04-08T02:54:55.071Z,16.47
2018-04-08T02:55:21.212Z,16.46
2018-04-08T02:55:47.351Z,16.47
2018-04-08T02:56:13.512Z,16.47
2018-04-08T02:56:39.654Z,16.51
2018-04-08T02:57:05.788Z,16.43
2018-04-08T02:57:31.926Z,16.47
2018-04-08T02:57:58.087Z,16.46
2018-04-08T02:58:24.224Z,16.46
2018-04-08T02:58:50.368Z,16.47
2018-04-08T02:59:16.506Z,16.39
2018-04-08T02:59:42.648Z,16.46
2018-04-08T03:00:08.784Z,16.46
2018-04-08T03:00:34.931Z,16.36
2018-04-08T03:01:01.066Z,16.38
2018-04-08T03:01:27.214Z,16.39
2018-04-08T03:01:53.345Z,16.33
2018-04-08T03:02:19.480Z,16.39
2018-04-08T03:02:45.635Z,16.41
2018-04-08T03:03:11.757Z,16.26
2018-04-08T03:03:37.910Z,16.28
2018-04-08T03:04:04.084Z,16.32
2018-04-08T03:04:30.226Z,16.32
2018-04-08T03:04:56.376Z,16.32
2018-04-08T03:05:22.523Z,16.31
2018-04-08T03:05:48.655Z,16.28
2018-04-08T03:06:14.797Z,16.29
2018-04-08T03:06:40.931Z,16.21
2018-04-08T03:07:07.077Z,16.1
2018-04-08T03:07:33.211Z,16.17
2018-04-08T03:07:59.350Z,16.1
2018-04-08T03:08:25.497Z,16.09
2018-04-08T03:08:51.627Z,16.12
2018-04-08T03:09:17.761Z,16.12
2018-04-08T03:09:43.927Z,16.09
2018-04-08T03:10:10.060Z,16.09
2018-04-08T03:10:36.205Z,16.1
2018-04-08T03:11:02.346Z,16.09
2018-04-08T03:11:28.509Z,16.04
2018-04-08T03:11:54.648Z,16.01
2018-04-08T03:12:20.785Z,16.02
2018-04-08T03:12:46.924Z,16
2018-04-08T03:13:13.067Z,16.01
2018-04-08T03:13:39.200Z,16.02
2018-04-08T03:14:05.344Z,16.04
2018-04-08T03:14:31.480Z,15.98
2018-04-08T03:14:57.640Z,16.01
2018-04-08T03:15:23.774Z,16.01
2018-04-08T03:15:49.920Z,15.97
2018-04-08T03:16:16.052Z,16
2018-04-08T03:16:42.193Z,16.01
2018-04-08T03:17:08.332Z,15.88
2018-04-08T03:17:34.468Z,15.95
2018-04-08T03:18:00.612Z,16
2018-04-08T03:18:26.745Z,15.92
2018-04-08T03:18:52.889Z,15.88
2018-04-08T03:19:19.028Z,15.9
2018-04-08T03:19:45.172Z,15.83
2018-04-08T03:20:11.312Z,15.95
2018-04-08T03:20:37.443Z,15.88
2018-04-08T03:21:03.588Z,15.91
2018-04-08T03:21:29.730Z,15.9
2018-04-08T03:21:55.871Z,15.9
2018-04-08T03:22:22.014Z,15.82
2018-04-08T03:22:48.154Z,15.9
2018-04-08T03:23:14.293Z,15.8
2018-04-08T03:23:40.430Z,15.86
2018-04-08T03:24:06.566Z,15.83
2018-04-08T03:24:32.711Z,15.8
2018-04-08T03:24:58.849Z,15.72
2018-04-08T03:25:24.986Z,15.76
2018-04-08T03:25:51.148Z,15.68
2018-04-08T03:26:17.289Z,15.7
2018-04-08T03:26:43.427Z,15.8
2018-04-08T03:27:09.568Z,15.84
2018-04-08T03:27:35.731Z,15.84
2018-04-08T03:28:01.895Z,15.82
2018-04-08T03:28:28.034Z,15.9
2018-04-08T03:28:54.174Z,15.83
2018-04-08T03:29:20.319Z,15.86
2018-04-08T03:29:46.480Z,15.86
2018-04-08T03:30:12.620Z,15.83
2018-04-08T03:30:38.781Z,15.88
2018-04-08T03:31:04.913Z,15.9
2018-04-08T03:31:31.056Z,15.8
2018-04-08T03:31:57.189Z,15.84
2018-04-08T03:32:23.351Z,15.88
2018-04-08T03:32:49.497Z,15.91
2018-04-08T03:33:15.660Z,15.91
2018-04-08T03:33:41.802Z,15.9
2018-04-08T03:34:07.961Z,15.83
2018-04-08T03:34:34.097Z,15.86
2018-04-08T03:35:00.242Z,15.82
2018-04-08T03:35:26.410Z,15.9
2018-04-08T03:35:52.548Z,15.91
2018-04-08T03:36:18.687Z,15.9
2018-04-08T03:36:44.846Z,15.84
2018-04-08T03:37:11.007Z,15.9
2018-04-08T03:37:37.152Z,15.92
2018-04-08T03:38:03.314Z,15.88
2018-04-08T03:38:29.467Z,15.97
2018-04-08T03:38:55.595Z,16.01
2018-04-08T03:39:21.765Z,15.98
2018-04-08T03:39:47.894Z,16
2018-04-08T03:40:14.044Z,16
2018-04-08T03:40:40.175Z,15.98
2018-04-08T03:41:06.313Z,16
2018-04-08T03:41:32.451Z,15.84
2018-04-08T03:41:58.618Z,15.92
2018-04-08T03:42:24.784Z,15.82
2018-04-08T03:42:50.917Z,15.88
2018-04-08T03:43:17.053Z,15.82
2018-04-08T03:43:43.196Z,15.86
2018-04-08T03:44:09.340Z,15.82
2018-04-08T03:44:35.476Z,15.84
2018-04-08T03:45:01.611Z,15.82
2018-04-08T03:45:27.754Z,15.88
2018-04-08T03:45:53.890Z,15.91
2018-04-08T03:46:20.030Z,15.95
2018-04-08T03:46:46.164Z,15.92
2018-04-08T03:47:12.308Z,15.97
2018-04-08T03:47:38.451Z,15.95
2018-04-08T03:48:04.616Z,15.84
2018-04-08T03:48:30.777Z,15.88
2018-04-08T03:48:56.919Z,15.88
2018-04-08T03:49:23.054Z,15.91
2018-04-08T03:49:49.192Z,15.94
2018-04-08T03:50:15.327Z,15.83
2018-04-08T03:50:41.468Z,15.84
2018-04-08T03:51:07.609Z,15.8
2018-04-08T03:51:33.745Z,15.76
2018-04-08T03:51:59.885Z,15.76
2018-04-08T03:52:26.022Z,15.76
2018-04-08T03:52:52.154Z,15.75
2018-04-08T03:53:18.298Z,15.76
2018-04-08T03:53:44.453Z,15.7
2018-04-08T03:54:10.588Z,15.7
2018-04-08T03:54:36.731Z,15.7
2018-04-08T03:55:02.866Z,15.65
2018-04-08T03:55:29.024Z,15.76
2018-04-08T03:55:55.171Z,15.7
2018-04-08T03:56:21.304Z,15.75
2018-04-08T03:56:47.441Z,15.7
2018-04-08T03:57:13.587Z,15.65
2018-04-08T03:57:39.749Z,15.62
2018-04-08T03:58:05.889Z,15.67
2018-04-08T03:58:32.032Z,15.47
2018-04-08T03:58:58.167Z,15.59
2018-04-08T03:59:24.312Z,15.52
2018-04-08T03:59:50.447Z,15.52
2018-04-08T04:00:16.583Z,15.47
2018-04-08T04:00:42.721Z,15.43
2018-04-08T04:01:08.880Z,15.47
2018-04-08T04:01:35.018Z,15.42
2018-04-08T04:02:01.160Z,15.43
2018-04-08T04:02:27.296Z,15.46
2018-04-08T04:02:53.431Z,15.31
2018-04-08T04:03:19.575Z,15.36
2018-04-08T04:03:45.718Z,15.42
2018-04-08T04:04:11.863Z,15.31
2018-04-08T04:04:37.997Z,15.37
2018-04-08T04:05:04.132Z,15.4
2018-04-08T04:05:30.319Z,15.29
2018-04-08T04:05:56.456Z,15.24
2018-04-08T04:06:22.591Z,15.37
2018-04-08T04:06:48.728Z,15.28
2018-04-08T04:07:14.869Z,15.29
2018-04-08T04:07:41.005Z,15.28
2018-04-08T04:08:07.170Z,15.33
2018-04-08T04:08:33.309Z,15.28
2018-04-08T04:08:59.447Z,15.29
2018-04-08T04:09:25.585Z,15.33
2018-04-08T04:09:51.725Z,15.35
2018-04-08T04:10:17.863Z,15.27
2018-04-08T04:10:44.027Z,15.33
2018-04-08T04:11:10.165Z,15.29
2018-04-08T04:11:36.303Z,15.42
2018-04-08T04:12:02.445Z,15.36
2018-04-08T04:12:28.582Z,15.47
2018-04-08T04:12:54.727Z,15.33
2018-04-08T04:13:20.858Z,15.4
2018-04-08T04:13:47.003Z,15.39
2018-04-08T04:14:13.137Z,15.28
2018-04-08T04:14:39.278Z,15.33
2018-04-08T04:15:05.414Z,15.31
2018-04-08T04:15:31.547Z,15.33
2018-04-08T04:15:57.687Z,15.33
2018-04-08T04:16:23.820Z,15.29
2018-04-08T04:16:49.967Z,15.15
2018-04-08T04:17:16.106Z,15.19
2018-04-08T04:17:42.243Z,15.15
2018-04-08T04:18:08.380Z,15.17
2018-04-08T04:18:34.521Z,15.15
2018-04-08T04:19:00.658Z,15.17
2018-04-08T04:19:26.793Z,15.18
2018-04-08T04:19:52.934Z,15.15
2018-04-08T04:20:19.066Z,15.09
2018-04-08T04:20:45.208Z,15.06
2018-04-08T04:21:11.351Z,15.19
2018-04-08T04:21:37.482Z,15.14
2018-04-08T04:22:03.621Z,15.1
2018-04-08T04:22:29.786Z,15.14
2018-04-08T04:22:55.926Z,15.07
2018-04-08T04:23:22.066Z,15.1
2018-04-08T04:23:48.234Z,15.11
2018-04-08T04:24:14.374Z,15.1
2018-04-08T04:24:40.506Z,15.04
2018-04-08T04:25:06.644Z,15
2018-04-08T04:25:32.783Z,14.96
2018-04-08T04:25:58.918Z,14.99
2018-04-08T04:26:25.054Z,15.06
2018-04-08T04:26:51.199Z,15.06
2018-04-08T04:27:17.335Z,15.02
2018-04-08T04:27:43.471Z,15.06
2018-04-08T04:28:09.614Z,15.11
2018-04-08T04:28:35.748Z,15.06
2018-04-08T04:29:01.912Z,15.14
2018-04-08T04:29:28.095Z,15.19
2018-04-08T04:29:54.213Z,15.1
2018-04-08T04:30:20.351Z,15.18
2018-04-08T04:30:46.485Z,15.21
2018-04-08T04:31:12.621Z,15.29
2018-04-08T04:31:38.763Z,15.21
2018-04-08T04:32:04.901Z,15.31
2018-04-08T04:32:31.036Z,15.28
2018-04-08T04:32:57.206Z,15.31
2018-04-08T04:33:23.344Z,15.29
2018-04-08T04:33:49.484Z,15.36
2018-04-08T04:34:15.626Z,15.28
2018-04-08T04:34:41.763Z,15.28
2018-04-08T04:35:07.927Z,15.25
2018-04-08T04:35:34.067Z,15.25
2018-04-08T04:36:00.228Z,15.28
2018-04-08T04:36:26.371Z,15.15
2018-04-08T04:36:52.509Z,15.17
2018-04-08T04:37:18.643Z,15.29
2018-04-08T04:37:44.792Z,15.25
2018-04-08T04:38:10.930Z,15.29
2018-04-08T04:38:37.067Z,15.28
2018-04-08T04:39:03.207Z,15.27
2018-04-08T04:39:29.347Z,15.25
2018-04-08T04:39:55.488Z,15.33
2018-04-08T04:40:21.629Z,15.35
2018-04-08T04:40:47.788Z,15.36
2018-04-08T04:41:13.925Z,15.27
2018-04-08T04:41:40.115Z,15.29
2018-04-08T04:42:06.202Z,15.39
2018-04-08T04:42:32.339Z,15.4
2018-04-08T04:42:58.475Z,15.35
2018-04-08T04:43:24.614Z,15.33
2018-04-08T04:43:50.777Z,15.43
2018-04-08T04:44:16.917Z,15.39
2018-04-08T04:44:43.050Z,15.43
2018-04-08T04:45:09.189Z,15.46
2018-04-08T04:45:35.394Z,15.37
2018-04-08T04:46:01.511Z,15.4
2018-04-08T04:46:27.648Z,15.46
2018-04-08T04:46:53.791Z,15.44
2018-04-08T04:47:19.925Z,15.44
2018-04-08T04:47:46.060Z,15.47
2018-04-08T04:48:12.203Z,15.47
2018-04-08T04:48:38.344Z,15.51
2018-04-08T04:49:04.479Z,15.44
2018-04-08T04:49:30.661Z,15.44
2018-04-08T04:49:56.804Z,15.44
2018-04-08T04:50:22.948Z,15.36
2018-04-08T04:50:49.086Z,15.42
2018-04-08T04:51:15.271Z,15.47
2018-04-08T04:51:41.363Z,15.49
2018-04-08T04:52:07.506Z,15.52
2018-04-08T04:52:33.644Z,15.46
2018-04-08T04:52:59.788Z,15.47
2018-04-08T04:53:25.923Z,15.52
2018-04-08T04:53:52.057Z,15.58
2018-04-08T04:54:18.199Z,15.51
2018-04-08T04:54:44.342Z,15.52
2018-04-08T04:55:10.481Z,15.55
2018-04-08T04:55:36.631Z,15.58
2018-04-08T04:56:02.779Z,15.59
2018-04-08T04:56:28.922Z,15.65
2018-04-08T04:56:55.060Z,15.61
2018-04-08T04:57:21.196Z,15.58
2018-04-08T04:57:47.330Z,15.52
2018-04-08T04:58:13.466Z,15.59
2018-04-08T04:58:39.610Z,15.61
2018-04-08T04:59:05.747Z,15.61
2018-04-08T04:59:31.889Z,15.65
2018-04-08T04:59:58.027Z,15.64
2018-04-08T05:00:24.164Z,15.65
2018-04-08T05:00:50.305Z,15.61
2018-04-08T05:01:16.449Z,15.59
2018-04-08T05:01:42.575Z,15.62
2018-04-08T05:02:08.720Z,15.58
2018-04-08T05:02:34.861Z,15.64
2018-04-08T05:03:00.998Z,15.68
2018-04-08T05:03:27.145Z,15.65
2018-04-08T05:03:53.273Z,15.61
2018-04-08T05:04:19.414Z,15.62
2018-04-08T05:04:45.552Z,15.61
2018-04-08T05:05:11.687Z,15.67
2018-04-08T05:05:37.823Z,15.75
2018-04-08T05:06:03.958Z,15.68
2018-04-08T05:06:30.121Z,15.73
2018-04-08T05:06:56.265Z,15.75
2018-04-08T05:07:22.403Z,15.75
2018-04-08T05:07:48.537Z,15.67
2018-04-08T05:08:14.697Z,15.76
2018-04-08T05:08:40.840Z,15.75
2018-04-08T05:09:06.999Z,15.7
2018-04-08T05:09:33.144Z,15.72
2018-04-08T05:09:59.283Z,15.72
2018-04-08T05:10:25.425Z,15.75
2018-04-08T05:10:51.561Z,15.72
2018-04-08T05:11:17.730Z,15.68
2018-04-08T05:11:43.843Z,15.7
2018-04-08T05:12:09.984Z,15.7
2018-04-08T05:12:36.119Z,15.7
2018-04-08T05:13:02.253Z,15.7
2018-04-08T05:13:28.399Z,15.68
2018-04-08T05:13:54.563Z,15.79
2018-04-08T05:14:20.674Z,15.76
2018-04-08T05:14:46.811Z,15.82
2018-04-08T05:15:12.950Z,15.82
2018-04-08T05:15:39.085Z,15.76
2018-04-08T05:16:05.222Z,15.8
2018-04-08T05:16:31.381Z,15.76
2018-04-08T05:16:57.520Z,15.88
2018-04-08T05:17:23.666Z,15.86
2018-04-08T05:17:49.822Z,15.82
2018-04-08T05:18:15.965Z,15.86
2018-04-08T05:18:42.126Z,15.88
2018-04-08T05:19:08.260Z,15.83
2018-04-08T05:19:34.425Z,15.83
2018-04-08T05:20:00.576Z,15.95
2018-04-08T05:20:26.735Z,15.92
2018-04-08T05:20:52.873Z,15.95
2018-04-08T05:21:19.018Z,15.92
2018-04-08T05:21:45.166Z,15.84
2018-04-08T05:22:11.302Z,15.77
2018-04-08T05:22:37.461Z,15.8
2018-04-08T05:23:03.611Z,15.68
2018-04-08T05:23:29.742Z,15.75
2018-04-08T05:23:55.883Z,15.67
2018-04-08T05:24:22.015Z,15.65
2018-04-08T05:24:48.154Z,15.62
2018-04-08T05:25:14.294Z,15.62
2018-04-08T05:25:40.455Z,15.58
2018-04-08T05:26:06.603Z,15.58
2018-04-08T05:26:32.735Z,15.59
2018-04-08T05:26:58.897Z,15.55
2018-04-08T05:27:25.033Z,15.59
2018-04-08T05:27:51.175Z,15.55
2018-04-08T05:28:17.309Z,15.49
2018-04-08T05:28:43.449Z,15.51
2018-04-08T05:29:09.583Z,15.55
2018-04-08T05:29:35.729Z,15.49
2018-04-08T05:30:01.857Z,15.55
2018-04-08T05:30:28.001Z,15.52
2018-04-08T05:30:54.134Z,15.59
2018-04-08T05:31:20.276Z,15.52
2018-04-08T05:31:46.416Z,15.61
2018-04-08T05:32:12.555Z,15.65
2018-04-08T05:32:38.693Z,15.67
2018-04-08T05:33:04.829Z,15.73
2018-04-08T05:33:30.974Z,15.73
2018-04-08T05:33:57.135Z,15.73
2018-04-08T05:34:23.304Z,15.75
2018-04-08T05:34:49.444Z,15.68
2018-04-08T05:35:15.585Z,15.76
2018-04-08T05:35:41.724Z,15.84
2018-04-08T05:36:07.860Z,15.88
2018-04-08T05:36:34.001Z,15.9
2018-04-08T05:37:00.157Z,15.91
2018-04-08T05:37:26.300Z,15.98
2018-04-08T05:37:52.436Z,15.97